createdAt,value
2023-03-10T00:04:15.916Z,79.70
2023-03-10T00:09:20.666Z,79.60
2023-03-10T00:14:24.030Z,79.90
2023-03-10T00:19:27.633Z,79.90
2023-03-10T00:24:32.360Z,80.10
2023-03-10T00:29:36.024Z,80.30
2023-03-10T00:34:39.385Z,80.20
2023-03-10T00:39:44.342Z,80.40
2023-03-10T00:44:48.626Z,80.40
2023-03-10T00:49:52.180Z,80.50
2023-03-10T00:54:57.085Z,80.50
2023-03-10T01:00:00.782Z,80.50
2023-03-10T01:05:04.257Z,80.50
2023-03-10T01:10:10.304Z,80.60
2023-03-10T01:15:14.439Z,80.50
2023-03-10T01:20:19.006Z,80.60
2023-03-10T01:25:24.060Z,80.70
2023-03-10T01:30:27.753Z,80.80
2023-03-10T01:35:31.821Z,80.90
2023-03-10T01:40:37.162Z,80.80
2023-03-10T01:46:29.736Z,81.00
2023-03-10T01:51:36.921Z,81.00
2023-03-10T01:56:42.830Z,80.90
2023-03-10T02:02:03.145Z,80.90
2023-03-10T02:07:07.876Z,81.50
2023-03-10T02:12:15.198Z,82.00
2023-03-10T02:17:20.573Z,83.10
2023-03-10T02:22:24.312Z,83.50
2023-03-10T02:27:32.382Z,83.30
2023-03-10T02:32:38.433Z,83.60
2023-03-10T02:37:42.272Z,83.80
2023-03-10T02:42:46.960Z,84.20
2023-03-10T02:47:50.478Z,84.00
2023-03-10T02:53:00.725Z,83.90
2023-03-10T02:58:05.699Z,83.70
2023-03-10T03:03:10.856Z,83.60
2023-03-10T03:08:14.948Z,83.40
2023-03-10T03:13:19.790Z,83.30
2023-03-10T03:18:23.592Z,83.10
2023-03-10T03:23:26.978Z,82.80
2023-03-10T03:28:32.095Z,82.80
2023-03-10T03:33:35.762Z,82.40
2023-03-10T03:38:39.633Z,82.20
2023-03-10T03:43:44.343Z,82.10
2023-03-10T03:48:47.739Z,81.70
2023-03-10T03:53:51.284Z,81.70
2023-03-10T03:58:56.001Z,81.40
2023-03-10T04:03:59.451Z,81.20
2023-03-10T04:09:02.882Z,81.10
2023-03-10T04:14:07.969Z,81.00
2023-03-10T04:19:11.339Z,81.00
2023-03-10T04:24:14.722Z,80.80
2023-03-10T04:29:19.672Z,80.50
2023-03-10T04:34:23.811Z,80.20
2023-03-10T04:39:27.182Z,79.80
2023-03-10T04:44:31.932Z,79.80
2023-03-10T04:49:35.336Z,79.50
2023-03-10T04:54:38.741Z,79.10
2023-03-10T04:59:43.624Z,78.90
2023-03-10T05:04:47.035Z,78.90
2023-03-10T05:09:50.703Z,78.60
2023-03-10T05:14:55.440Z,78.70
2023-03-10T05:19:59.117Z,78.60
2023-03-10T05:25:02.460Z,78.40
2023-03-10T05:30:09.057Z,78.00
2023-03-10T05:35:14.005Z,77.90
2023-03-10T05:40:19.982Z,77.90
2023-03-10T05:45:24.959Z,77.80
2023-03-10T05:50:28.394Z,77.70
2023-03-10T05:55:32.113Z,77.80
2023-03-10T06:00:37.090Z,77.70
2023-03-10T06:05:40.759Z,77.50
2023-03-10T06:10:44.375Z,77.30
2023-03-10T06:15:51.838Z,77.40
2023-03-10T06:20:55.440Z,77.30
2023-03-10T06:25:59.925Z,77.30
2023-03-10T06:31:07.199Z,77.20
2023-03-10T06:36:11.996Z,77.00
2023-03-10T06:41:16.407Z,77.00
2023-03-10T06:46:21.400Z,76.90
2023-03-10T06:51:32.029Z,76.70
2023-03-10T06:56:36.267Z,76.70
2023-03-10T07:01:41.150Z,76.60
2023-03-10T07:06:44.576Z,76.50
2023-03-10T07:11:47.990Z,76.40
2023-03-10T07:16:52.695Z,76.20
2023-03-10T07:21:56.063Z,75.90
2023-03-10T07:27:00.967Z,76.00
2023-03-10T07:32:06.445Z,76.10
2023-03-10T07:37:11.291Z,76.00
2023-03-10T07:42:14.658Z,75.90
2023-03-10T07:47:19.613Z,75.70
2023-03-10T07:52:23.190Z,75.80
2023-03-10T07:57:27.005Z,75.60
2023-03-10T08:02:31.751Z,75.00
2023-03-10T08:07:35.734Z,74.80
2023-03-10T08:12:39.369Z,74.30
2023-03-10T08:17:44.284Z,73.70
2023-03-10T08:22:47.921Z,73.80
2023-03-10T08:27:51.650Z,73.60
2023-03-10T08:32:56.543Z,73.70
2023-03-10T08:38:00.526Z,73.70
2023-03-10T08:43:06.060Z,73.70
2023-03-10T08:48:10.788Z,73.80
2023-03-10T08:53:14.220Z,73.80
2023-03-10T08:58:17.927Z,73.70
2023-03-10T09:03:22.842Z,73.50
2023-03-10T09:08:27.636Z,73.30
2023-03-10T09:13:31.471Z,72.70
2023-03-10T09:18:36.338Z,72.20
2023-03-10T09:23:41.020Z,72.50
2023-03-10T09:28:44.640Z,70.80
2023-03-10T09:33:49.459Z,69.40
2023-03-10T09:38:53.500Z,68.50
2023-03-10T09:44:03.356Z,68.80
2023-03-10T09:49:15.778Z,68.90
2023-03-10T09:54:39.568Z,68.50
2023-03-10T09:59:46.451Z,67.90
2023-03-10T10:04:54.763Z,67.90
2023-03-10T10:10:04.343Z,67.40
2023-03-10T10:15:16.271Z,67.60
2023-03-10T10:20:25.747Z,68.10
2023-03-10T10:25:33.038Z,68.40
2023-03-10T10:30:38.238Z,68.10
2023-03-10T10:35:45.868Z,67.20
2023-03-10T10:40:51.582Z,66.90
2023-03-10T10:45:57.231Z,66.70
2023-03-10T10:51:02.360Z,65.70
2023-03-10T10:56:07.952Z,66.40
2023-03-10T11:01:13.892Z,66.80
2023-03-10T11:06:25.452Z,66.60
2023-03-10T11:11:36.430Z,66.60
2023-03-10T11:16:49.456Z,65.60
2023-03-10T11:21:59.903Z,65.30
2023-03-10T11:27:10.294Z,64.90
2023-03-10T11:32:23.183Z,65.40
2023-03-10T11:37:33.177Z,65.50
2023-03-10T11:42:46.315Z,65.40
2023-03-10T11:48:08.266Z,65.00
2023-03-10T11:53:17.447Z,64.90
2023-03-10T11:58:26.088Z,64.00
2023-03-10T12:03:41.798Z,63.60
2023-03-10T12:08:47.778Z,64.30
2023-03-10T12:13:54.139Z,64.40
2023-03-10T12:18:58.146Z,64.40
2023-03-10T12:24:04.545Z,64.60
2023-03-10T12:29:31.630Z,64.40
2023-03-10T12:34:35.116Z,64.40
2023-03-10T12:39:41.846Z,63.70
2023-03-10T12:44:56.110Z,63.60
2023-03-10T12:50:06.347Z,63.30
2023-03-10T12:55:24.319Z,63.20
2023-03-10T13:00:40.162Z,63.00
2023-03-10T13:05:58.162Z,63.00
2023-03-10T13:11:04.759Z,62.90
2023-03-10T13:16:09.431Z,62.40
2023-03-10T13:21:25.199Z,61.60
2023-03-10T13:26:30.622Z,61.00
2023-03-10T13:31:35.216Z,61.60
2023-03-10T13:36:40.356Z,61.20
2023-03-10T13:41:47.653Z,61.00
2023-03-10T13:46:53.348Z,60.80
2023-03-10T13:51:58.441Z,61.00
2023-03-10T13:57:08.397Z,60.60
2023-03-10T14:02:18.971Z,60.70
2023-03-10T14:07:24.310Z,60.80
2023-03-10T14:12:39.863Z,60.10
2023-03-10T14:17:46.604Z,60.50
2023-03-10T14:22:49.975Z,61.00
2023-03-10T14:27:57.325Z,61.00
2023-03-10T14:33:02.580Z,60.60
2023-03-10T14:38:05.963Z,60.40
2023-03-10T14:43:16.652Z,60.30
2023-03-10T14:48:22.758Z,60.50
2023-03-10T14:53:27.728Z,59.90
2023-03-10T14:58:35.763Z,60.40
2023-03-10T15:03:39.115Z,60.50
2023-03-10T15:08:42.631Z,60.50
2023-03-10T15:13:47.379Z,60.50
2023-03-10T15:18:52.608Z,60.70
2023-03-10T15:23:56.750Z,60.90
2023-03-10T15:29:01.529Z,60.40
2023-03-10T15:34:05.355Z,60.40
2023-03-10T15:39:09.866Z,60.10
2023-03-10T15:44:15.838Z,60.00
2023-03-10T15:49:19.832Z,59.20
2023-03-10T15:54:23.434Z,59.20
2023-03-10T15:59:28.442Z,59.30
2023-03-10T16:04:32.286Z,59.60
2023-03-10T16:09:35.674Z,59.70
2023-03-10T16:14:40.335Z,59.80
2023-03-10T16:19:44.006Z,60.00
2023-03-10T16:24:47.495Z,60.20
2023-03-10T16:29:52.493Z,60.30
2023-03-10T16:34:55.894Z,60.30
2023-03-10T16:39:59.455Z,60.40
2023-03-10T16:45:04.367Z,60.50
2023-03-10T16:50:12.513Z,60.60
2023-03-10T16:55:17.975Z,60.60
2023-03-10T17:00:23.497Z,60.50
2023-03-10T17:05:26.933Z,60.50
2023-03-10T17:10:30.729Z,60.60
2023-03-10T17:15:35.515Z,60.60
2023-03-10T17:20:39.342Z,61.80
2023-03-10T17:25:43.891Z,60.90
2023-03-10T17:30:48.775Z,60.90
2023-03-10T17:35:52.178Z,59.60
2023-03-10T17:40:55.575Z,60.50
2023-03-10T17:46:01.781Z,61.40
2023-03-10T17:51:06.181Z,61.60
2023-03-10T17:56:10.478Z,61.60
2023-03-10T18:01:17.704Z,61.80
2023-03-10T18:06:23.462Z,61.80
2023-03-10T18:11:27.877Z,61.90
2023-03-10T18:16:35.496Z,61.80
2023-03-10T18:21:39.313Z,61.90
2023-03-10T18:26:43.997Z,61.60
2023-03-10T18:31:49.078Z,61.60
2023-03-10T18:36:52.795Z,61.20
2023-03-10T18:41:56.265Z,60.20
2023-03-10T18:47:01.964Z,60.10
2023-03-10T18:52:06.420Z,60.90
2023-03-10T18:57:09.862Z,61.30
2023-03-10T19:02:16.331Z,60.80
2023-03-10T19:07:21.435Z,60.70
2023-03-10T19:12:25.101Z,60.90
2023-03-10T19:17:30.365Z,60.90
2023-03-10T19:22:34.978Z,61.00
2023-03-10T19:27:40.375Z,61.00
2023-03-10T19:32:46.110Z,61.20
2023-03-10T19:37:57.447Z,61.50
2023-03-10T19:43:01.296Z,61.60
2023-03-10T19:48:06.432Z,61.60
2023-03-10T19:53:09.865Z,61.60
2023-03-10T19:58:13.290Z,61.70
2023-03-10T20:03:18.176Z,61.80
2023-03-10T20:08:21.768Z,61.90
2023-03-10T20:13:25.182Z,62.00
2023-03-10T20:18:30.045Z,62.00
2023-03-10T20:23:34.901Z,62.20
2023-03-10T20:28:39.824Z,62.40
2023-03-10T20:33:44.601Z,62.50
2023-03-10T20:38:49.913Z,62.70
2023-03-10T20:43:53.810Z,62.90
2023-03-10T20:48:58.617Z,63.30
2023-03-10T20:54:02.807Z,63.40
2023-03-10T20:59:06.186Z,63.60
2023-03-10T21:04:10.951Z,63.60
2023-03-10T21:09:14.953Z,64.20
2023-03-10T21:14:19.136Z,64.10
2023-03-10T21:19:23.931Z,65.10
2023-03-10T21:24:27.480Z,64.30
2023-03-10T21:29:31.731Z,64.40
2023-03-10T21:34:36.534Z,64.50
2023-03-10T21:39:39.996Z,64.50
2023-03-10T21:44:43.935Z,64.60
2023-03-10T21:49:48.767Z,64.70
2023-03-10T21:54:52.139Z,64.80
2023-03-10T21:59:55.505Z,65.00
2023-03-10T22:05:00.558Z,65.10
2023-03-10T22:10:04.594Z,65.10
2023-03-10T22:15:10.142Z,66.00
2023-03-10T22:20:20.709Z,65.40
2023-03-10T22:25:24.525Z,65.50
2023-03-10T22:30:29.908Z,65.60
2023-03-10T22:35:38.918Z,65.50
2023-03-10T22:40:42.779Z,65.60
2023-03-10T22:45:46.843Z,65.70
2023-03-10T22:50:51.692Z,65.60
2023-03-10T22:55:55.097Z,65.60
2023-03-10T23:00:58.626Z,65.40
2023-03-10T23:06:06.019Z,65.30
2023-03-10T23:11:11.429Z,65.50
2023-03-10T23:16:18.033Z,66.20
2023-03-10T23:21:22.990Z,66.30
2023-03-10T23:26:27.182Z,66.30
2023-03-10T23:31:30.713Z,66.70
2023-03-10T23:36:35.800Z,67.00
2023-03-10T23:41:39.197Z,67.00
2023-03-10T23:46:42.948Z,66.90
2023-03-10T23:51:48.842Z,66.80
2023-03-10T23:56:52.843Z,66.80
